Time;durP1;ratioP1;P1;durP2;ratioP2;P2;SDS_P1;SDS_P2;PMS_P1;PMS_P2;Temp;Humidity;BMP_temperature;BMP_pressure;BME280_temperature;BME280_humidity;BME280_pressure;Samples;Min_cycle;Max_cycle;Signal;HPM_P1;HPM_P2
2022/05/27 00:01:05;;;;;;;1.67;0.40;;;15.90;99.90;;;;;;20702822;28;20472;-42
2022/05/27 00:11:06;;;;;;;2.08;0.70;;;15.60;99.90;;;;;;20694583;28;20493;-42
2022/05/27 00:21:08;;;;;;;1.40;0.52;;;15.20;99.90;;;;;;20703204;28;20461;-42
2022/05/27 00:31:10;;;;;;;0.98;0.30;;;15.00;99.90;;;;;;20696525;28;20520;-42
2022/05/27 00:41:12;;;;;;;2.42;1.10;;;14.80;99.90;;;;;;20702210;28;20045;-42
2022/05/27 00:51:19;;;;;;;2.80;1.08;;;14.90;99.90;;;;;;20695188;28;20057;-42
2022/05/27 01:01:20;;;;;;;2.08;0.70;;;14.90;99.90;;;;;;20703143;28;20049;-42
2022/05/27 01:11:39;;;;;;;2.53;1.20;;;15.00;99.90;;;;;;20696262;28;20506;-42
2022/05/27 01:22:03;;;;;;;7.45;1.15;;;14.80;99.90;;;;;;20706945;28;20049;-42
2022/05/27 01:32:16;;;;;;;3.08;0.80;;;14.70;99.90;;;;;;20694372;28;20042;-42
2022/05/27 01:42:26;;;;;;;2.13;0.52;;;14.60;99.90;;;;;;20714424;28;20156;-42
2022/05/27 01:52:34;;;;;;;0.90;0.30;;;14.60;99.90;;;;;;20697431;28;20412;-42
2022/05/27 02:02:39;;;;;;;1.30;0.80;;;14.40;99.90;;;;;;20708506;28;20262;-42
2022/05/27 02:12:46;;;;;;;1.45;0.52;;;14.40;99.90;;;;;;20709954;28;20048;-42
2022/05/27 02:23:03;;;;;;;2.13;0.50;;;14.20;99.90;;;;;;20705162;28;20049;-42
2022/05/27 02:43:38;;;;;;;1.98;0.80;;;14.00;99.90;;;;;;20707478;28;21419;-42
2022/05/27 02:53:45;;;;;;;1.40;0.55;;;13.90;99.90;;;;;;20712988;28;20366;-42
2022/05/27 03:03:46;;;;;;;2.25;1.08;;;13.90;99.90;;;;;;20687457;28;20046;-42
2022/05/27 03:14:02;;;;;;;1.95;1.10;;;13.80;99.90;;;;;;20703221;28;20390;-42
2022/05/27 03:24:11;;;;;;;3.58;1.30;;;13.70;99.90;;;;;;20706308;28;20128;-42
2022/05/27 03:34:23;;;;;;;2.22;1.02;;;13.80;99.90;;;;;;20701418;28;21975;-42
2022/05/27 03:44:27;;;;;;;7.93;2.47;;;13.80;99.90;;;;;;20696141;28;20182;-42
2022/05/27 03:54:28;;;;;;;3.03;0.73;;;13.90;99.90;;;;;;20701693;28;20072;-42
2022/05/27 04:04:29;;;;;;;4.22;1.38;;;13.90;99.90;;;;;;20704296;28;20045;-42
2022/05/27 04:14:31;;;;;;;2.00;1.58;;;13.90;99.90;;;;;;20700681;28;20107;-42
2022/05/27 04:24:33;;;;;;;2.92;1.50;;;14.00;99.90;;;;;;20700765;28;20044;-42
2022/05/27 04:34:34;;;;;;;1.63;0.50;;;14.10;99.90;;;;;;20695115;28;20048;-42
2022/05/27 04:44:35;;;;;;;3.30;1.08;;;14.20;99.90;;;;;;20692152;28;20041;-42
2022/05/27 04:54:37;;;;;;;1.85;0.77;;;14.20;99.90;;;;;;20692149;28;20068;-42
2022/05/27 05:04:38;;;;;;;2.38;0.57;;;14.30;99.90;;;;;;20692624;28;20037;-42
2022/05/27 05:14:40;;;;;;;1.50;0.60;;;14.30;99.90;;;;;;20689152;28;20413;-42
2022/05/27 05:24:41;;;;;;;2.40;0.93;;;14.40;99.90;;;;;;20699506;28;20596;-42
2022/05/27 05:34:42;;;;;;;1.65;0.50;;;14.50;99.90;;;;;;20694536;28;20053;-42
2022/05/27 05:44:43;;;;;;;1.95;1.10;;;14.50;99.90;;;;;;20686574;28;20042;-42
2022/05/27 05:54:45;;;;;;;3.05;0.77;;;14.50;99.90;;;;;;20686748;28;20128;-42
2022/05/27 06:04:46;;;;;;;1.48;0.45;;;14.50;99.90;;;;;;20693559;28;20046;-42
2022/05/27 06:14:47;;;;;;;4.20;0.80;;;14.60;99.90;;;;;;20708020;28;20057;-42
2022/05/27 06:24:48;;;;;;;1.45;0.60;;;14.70;99.90;;;;;;20704222;28;20537;-42
2022/05/27 06:34:49;;;;;;;4.28;1.08;;;14.70;99.90;;;;;;20711247;28;20428;-42
2022/05/27 06:44:50;;;;;;;2.95;0.85;;;14.80;99.90;;;;;;20700632;28;20061;-42
2022/05/27 06:54:52;;;;;;;3.78;0.88;;;14.90;99.90;;;;;;20666612;28;20061;-45
2022/05/27 07:04:53;;;;;;;3.65;0.75;;;15.10;99.90;;;;;;20679593;28;20412;-42
2022/05/27 07:14:56;;;;;;;4.88;1.42;;;15.30;99.90;;;;;;20678096;28;20719;-42
2022/05/27 07:24:58;;;;;;;1.85;0.73;;;15.30;99.90;;;;;;20692029;28;20076;-42
2022/05/27 07:34:59;;;;;;;4.65;0.75;;;15.20;99.90;;;;;;20680820;28;20052;-42
2022/05/27 07:45:00;;;;;;;3.38;0.80;;;15.20;99.90;;;;;;20701562;28;20523;-42
2022/05/27 07:55:01;;;;;;;2.63;0.90;;;15.30;99.90;;;;;;20687631;28;20041;-42
2022/05/27 08:05:03;;;;;;;2.25;0.90;;;15.60;99.90;;;;;;20695649;28;20065;-42
2022/05/27 08:15:04;;;;;;;1.23;0.52;;;15.70;99.90;;;;;;20669921;28;20521;-42
2022/05/27 08:25:06;;;;;;;2.03;0.60;;;15.80;99.90;;;;;;20701762;28;20480;-41
2022/05/27 08:45:36;;;;;;;2.65;0.70;;;15.90;99.90;;;;;;20710561;28;20526;-42
2022/05/27 09:06:04;;;;;;;10.05;4.07;;;16.10;99.90;;;;;;20632845;28;21043;-42
2022/05/27 09:16:38;;;;;;;4.10;0.80;;;16.40;99.90;;;;;;20632361;28;20041;-42
2022/05/27 09:26:42;;;;;;;1.83;0.60;;;16.40;99.90;;;;;;20608471;28;20038;-42
2022/05/27 09:36:49;;;;;;;1.98;1.17;;;16.30;99.90;;;;;;20600245;28;20497;-42
2022/05/27 09:46:51;;;;;;;6.93;0.60;;;16.60;99.90;;;;;;20646057;28;20046;-42
2022/05/27 09:57:09;;;;;;;3.40;0.70;;;16.80;99.90;;;;;;20672254;28;20042;-42
2022/05/27 10:07:10;;;;;;;1.45;0.70;;;17.00;99.90;;;;;;20737948;28;21612;-42
2022/05/27 10:17:14;;;;;;;3.05;0.73;;;17.20;99.90;;;;;;20722994;28;20088;-41
2022/05/27 10:27:20;;;;;;;3.10;0.82;;;17.20;99.90;;;;;;20722575;28;20713;-42
2022/05/27 10:37:32;;;;;;;2.93;1.00;;;17.20;99.90;;;;;;20706755;28;20081;-41
2022/05/27 10:47:51;;;;;;;2.08;1.00;;;17.30;99.90;;;;;;20712092;28;20057;-41
2022/05/27 11:09:06;;;;;;;11.75;1.25;;;17.80;99.90;;;;;;20635930;28;21465;-42
2022/05/27 11:19:12;;;;;;;1.83;1.10;;;17.80;99.90;;;;;;20634826;28;20653;-41
2022/05/27 11:29:51;;;;;;;2.60;0.80;;;17.80;99.90;;;;;;20634445;28;21448;-41
2022/05/27 11:40:01;;;;;;;5.88;0.77;;;17.80;99.90;;;;;;20621314;28;20054;-42
2022/05/27 11:50:16;;;;;;;2.03;0.70;;;17.30;99.90;;;;;;20656119;28;20056;-42
2022/05/27 12:00:24;;;;;;;5.72;1.27;;;17.60;99.90;;;;;;20695730;28;20246;-42
2022/05/27 12:10:40;;;;;;;1.30;0.77;;;17.90;99.90;;;;;;20686812;28;21529;-42
2022/05/27 12:20:42;;;;;;;4.40;0.60;;;17.40;99.90;;;;;;20707218;28;20125;-42
2022/05/27 12:30:45;;;;;;;1.65;0.50;;;17.20;99.90;;;;;;20709453;28;20041;-41
2022/05/27 12:40:50;;;;;;;3.17;0.70;;;17.30;99.90;;;;;;20705672;28;20046;-42
2022/05/27 12:51:00;;;;;;;4.93;1.15;;;17.10;99.90;;;;;;20679446;28;20056;-42
2022/05/27 13:01:04;;;;;;;1.45;0.50;;;17.10;99.90;;;;;;20707484;28;20056;-42
2022/05/27 13:11:12;;;;;;;2.22;0.75;;;17.20;99.90;;;;;;20701157;28;20049;-41
2022/05/27 13:21:36;;;;;;;1.13;0.47;;;17.20;99.90;;;;;;20708399;28;20253;-42
2022/05/27 13:31:42;;;;;;;3.13;0.70;;;16.80;99.90;;;;;;20705468;28;20042;-42
2022/05/27 13:41:48;;;;;;;3.75;0.85;;;16.80;99.90;;;;;;20704304;28;20064;-41
2022/05/27 13:51:50;;;;;;;3.50;0.68;;;17.70;99.90;;;;;;20668445;28;20046;-42
2022/05/27 14:01:55;;;;;;;2.00;0.57;;;18.00;99.90;;;;;;20635750;28;20046;-42
2022/05/27 14:12:01;;;;;;;1.88;0.60;;;17.70;99.90;;;;;;20642589;28;20397;-42
2022/05/27 14:32:38;;;;;;;4.82;1.13;;;16.50;99.90;;;;;;20589801;28;21458;-42
2022/05/27 14:42:39;;;;;;;3.00;1.73;;;16.10;99.90;;;;;;20624969;28;20045;-43
2022/05/27 14:52:43;;;;;;;1.25;0.40;;;16.10;99.90;;;;;;20658125;28;20050;-42
2022/05/27 15:02:45;;;;;;;1.10;0.38;;;16.30;99.90;;;;;;20706585;28;20045;-42
2022/05/27 15:12:46;;;;;;;1.10;0.60;;;16.60;99.90;;;;;;20690935;28;20046;-43
2022/05/27 15:22:55;;;;;;;1.10;0.38;;;16.10;99.90;;;;;;20653622;28;20726;-42
2022/05/27 15:33:09;;;;;;;4.47;0.90;;;16.10;99.90;;;;;;20692919;28;20133;-43
2022/05/27 15:43:14;;;;;;;0.95;0.35;;;16.00;99.90;;;;;;20668230;28;21396;-43
2022/05/27 15:53:18;;;;;;;1.13;0.50;;;16.30;99.90;;;;;;20708180;28;20049;-42
2022/05/27 16:03:23;;;;;;;1.35;0.40;;;16.70;99.90;;;;;;20715257;28;20068;-43
2022/05/27 16:13:24;;;;;;;0.82;0.45;;;16.80;99.90;;;;;;20741202;28;20455;-43
2022/05/27 16:23:25;;;;;;;1.02;0.50;;;16.70;99.90;;;;;;20696676;28;20045;-42
2022/05/27 16:33:26;;;;;;;0.68;0.25;;;16.60;99.90;;;;;;20709222;28;20523;-43
2022/05/27 16:43:27;;;;;;;1.45;0.35;;;16.30;99.90;;;;;;20697950;28;20065;-43
2022/05/27 16:53:28;;;;;;;0.85;0.30;;;16.00;99.90;;;;;;20718176;28;20149;-43
2022/05/27 17:03:32;;;;;;;1.08;0.40;;;16.00;99.90;;;;;;20715639;28;20049;-42
2022/05/27 17:13:33;;;;;;;1.30;0.50;;;16.20;99.90;;;;;;20718266;28;20082;-43
2022/05/27 17:23:34;;;;;;;1.45;0.35;;;16.10;99.90;;;;;;20720482;28;20196;-43
2022/05/27 17:33:35;;;;;;;1.02;0.43;;;15.90;99.90;;;;;;20715898;28;20413;-43
2022/05/27 17:43:38;;;;;;;1.60;0.43;;;15.60;99.90;;;;;;20710430;28;20037;-43
2022/05/27 17:53:39;;;;;;;1.63;0.50;;;15.60;99.90;;;;;;20724243;28;20125;-43
2022/05/27 18:03:41;;;;;;;2.58;0.43;;;15.50;99.90;;;;;;20724995;28;20603;-43
2022/05/27 18:13:42;;;;;;;0.68;0.30;;;15.40;99.90;;;;;;20733087;28;20521;-43
2022/05/27 18:23:44;;;;;;;1.70;0.50;;;15.40;99.90;;;;;;20739027;28;20812;-43
2022/05/27 18:33:45;;;;;;;2.55;0.93;;;15.30;99.90;;;;;;20717460;28;20140;-43
2022/05/27 18:43:49;;;;;;;2.40;0.60;;;15.20;99.90;;;;;;20730822;28;20049;-43
2022/05/27 18:53:51;;;;;;;2.30;1.05;;;15.10;99.90;;;;;;20729508;28;20497;-43
2022/05/27 19:03:52;;;;;;;8.02;0.60;;;14.90;99.90;;;;;;20728568;28;21936;-43
2022/05/27 19:13:53;;;;;;;2.10;1.00;;;14.70;99.90;;;;;;20723276;28;20046;-43
2022/05/27 19:23:54;;;;;;;1.40;0.93;;;14.60;99.90;;;;;;20722827;28;20045;-43
2022/05/27 19:33:56;;;;;;;1.30;0.40;;;14.40;99.90;;;;;;20726705;28;20045;-43
2022/05/27 19:43:57;;;;;;;1.52;0.43;;;14.20;99.90;;;;;;20702496;28;20060;-43
2022/05/27 19:54:01;;;;;;;2.03;0.50;;;14.00;99.90;;;;;;20727280;28;20057;-43
2022/05/27 20:14:24;;;;;;;3.45;0.73;;;13.60;99.90;;;;;;20724865;28;20508;-42
2022/05/27 20:24:26;;;;;;;3.67;0.70;;;13.40;99.90;;;;;;20735224;28;20100;-43
2022/05/27 20:34:27;;;;;;;1.75;0.45;;;13.20;99.90;;;;;;20705346;28;20049;-43
2022/05/27 20:44:30;;;;;;;2.22;1.00;;;13.10;99.90;;;;;;20716218;28;20053;-42
2022/05/27 20:54:37;;;;;;;1.92;0.70;;;12.90;99.90;;;;;;20719426;28;20111;-42
2022/05/27 21:04:43;;;;;;;1.63;0.50;;;12.80;99.90;;;;;;20706482;28;20053;-43
2022/05/27 21:14:45;;;;;;;4.07;0.80;;;12.70;99.90;;;;;;20713752;28;20048;-43
2022/05/27 21:24:46;;;;;;;3.95;0.90;;;12.70;99.90;;;;;;20719098;28;20049;-43
2022/05/27 21:34:47;;;;;;;4.10;0.82;;;12.70;99.90;;;;;;20710139;28;20056;-43
2022/05/27 21:44:49;;;;;;;1.20;0.60;;;12.60;99.90;;;;;;20714568;28;20335;-42
2022/05/27 21:54:51;;;;;;;3.40;1.05;;;12.60;99.90;;;;;;20718051;28;20060;-43
2022/05/27 22:04:52;;;;;;;1.92;0.60;;;12.70;99.90;;;;;;20713322;28;20046;-43
2022/05/27 22:14:53;;;;;;;1.85;0.90;;;12.60;99.90;;;;;;20710236;28;20045;-43
2022/05/27 22:24:54;;;;;;;1.80;0.65;;;12.50;99.90;;;;;;20720454;28;20252;-43
2022/05/27 22:34:58;;;;;;;1.35;0.57;;;12.50;99.90;;;;;;20715669;28;20049;-43
2022/05/27 22:44:59;;;;;;;1.35;0.70;;;12.50;99.90;;;;;;20696117;28;20057;-43
2022/05/27 22:55:00;;;;;;;3.05;1.63;;;12.60;99.90;;;;;;20715786;28;20056;-42
2022/05/27 23:05:01;;;;;;;11.13;1.27;;;12.50;99.90;;;;;;20715666;28;20053;-42
2022/05/27 23:25:25;;;;;;;2.33;0.80;;;12.10;99.90;;;;;;20712895;28;20060;-42
2022/05/27 23:35:26;;;;;;;3.88;1.17;;;12.10;99.90;;;;;;20718955;28;20046;-43
2022/05/27 23:45:27;;;;;;;2.03;0.82;;;12.00;99.90;;;;;;20717499;28;20032;-43
2022/05/27 23:55:30;;;;;;;2.28;0.65;;;11.90;99.90;;;;;;20714976;28;20432;-42
